createdAt,value
2019-02-02T00:01:12.197Z,34.37
2019-02-02T00:03:40.750Z,38.83
2019-02-02T00:06:09.374Z,40.23
2019-02-02T00:08:37.902Z,42.20
2019-02-02T00:11:06.520Z,40.70
2019-02-02T00:13:35.074Z,38.77
2019-02-02T00:16:04.084Z,37.23
2019-02-02T00:18:32.650Z,37.37
2019-02-02T00:21:04.304Z,40.23
2019-02-02T00:23:32.966Z,40.77
2019-02-02T00:26:01.509Z,39.80
2019-02-02T00:28:32.187Z,37.20
2019-02-02T00:31:00.887Z,42.00
2019-02-02T00:33:31.583Z,39.73
2019-02-02T00:36:01.779Z,38.80
2019-02-02T00:38:30.346Z,37.40
2019-02-02T00:41:01.532Z,36.57
2019-02-02T00:43:30.243Z,40.23
2019-02-02T00:46:03.026Z,38.93
2019-02-02T00:48:33.092Z,41.17
2019-02-02T00:51:03.187Z,38.00
2019-02-02T00:53:35.905Z,39.73
2019-02-02T00:56:04.856Z,37.77
2019-02-02T00:58:37.881Z,40.57
2019-02-02T01:01:06.624Z,42.33
2019-02-02T01:03:35.230Z,42.27
2019-02-02T01:06:04.985Z,43.70
2019-02-02T01:08:33.782Z,42.53
2019-02-02T01:11:02.555Z,39.53
2019-02-02T01:13:31.174Z,40.00
2019-02-02T01:15:59.854Z,44.27
2019-02-02T01:18:28.365Z,45.83
2019-02-02T01:20:56.995Z,40.90
2019-02-02T01:23:25.638Z,43.70
2019-02-02T01:25:55.721Z,45.87
2019-02-02T01:28:32.463Z,41.40
2019-02-02T01:31:00.943Z,40.43
2019-02-02T01:33:29.489Z,40.53
2019-02-02T01:35:58.071Z,38.87
2019-02-02T01:38:29.727Z,44.73
2019-02-02T01:40:58.296Z,38.37
2019-02-02T01:43:29.671Z,42.63
2019-02-02T01:45:58.212Z,40.63
2019-02-02T01:48:35.763Z,41.20
2019-02-02T01:51:05.951Z,43.63
2019-02-02T01:53:37.219Z,37.77
2019-02-02T01:56:05.877Z,39.47
2019-02-02T01:58:34.498Z,47.90
2019-02-02T02:01:03.256Z,41.27
2019-02-02T02:03:34.551Z,43.00
2019-02-02T02:06:06.192Z,42.93
2019-02-02T02:08:35.999Z,43.00
2019-02-02T02:11:07.730Z,36.27
2019-02-02T02:13:39.289Z,41.10
2019-02-02T02:16:07.821Z,42.20
2019-02-02T02:18:37.961Z,41.27
2019-02-02T02:21:09.482Z,39.77
2019-02-02T02:23:38.101Z,39.30
2019-02-02T02:26:08.349Z,39.43
2019-02-02T02:28:36.914Z,40.77
2019-02-02T02:31:07.086Z,39.83
2019-02-02T02:33:43.140Z,39.63
2019-02-02T02:36:11.697Z,38.30
2019-02-02T02:38:40.330Z,45.40
2019-02-02T02:41:08.893Z,41.67
2019-02-02T02:43:38.973Z,43.37
2019-02-02T02:46:15.005Z,42.37
2019-02-02T02:48:43.551Z,43.53
2019-02-02T02:51:12.097Z,43.77
2019-02-02T02:53:40.628Z,42.00
2019-02-02T02:56:09.179Z,41.80
2019-02-02T02:58:41.982Z,46.40
2019-02-02T03:01:10.656Z,39.70
2019-02-02T03:03:39.206Z,38.73
2019-02-02T03:06:10.957Z,43.07
2019-02-02T03:08:39.549Z,45.67
2019-02-02T03:11:08.207Z,44.70
2019-02-02T03:13:36.714Z,38.97
2019-02-02T03:16:05.363Z,43.97
2019-02-02T03:18:33.906Z,43.87
2019-02-02T03:21:06.729Z,38.27
2019-02-02T03:23:35.368Z,39.97
2019-02-02T03:26:04.009Z,37.10
2019-02-02T03:28:32.554Z,40.77
2019-02-02T03:31:01.174Z,39.80
2019-02-02T03:33:29.708Z,41.00
2019-02-02T03:35:59.905Z,39.43
2019-02-02T03:38:28.622Z,41.93
2019-02-02T03:40:57.136Z,42.63
2019-02-02T03:43:30.029Z,41.50
2019-02-02T03:45:58.619Z,41.93
2019-02-02T03:48:30.091Z,39.10
2019-02-02T03:51:00.201Z,38.80
2019-02-02T03:53:28.771Z,41.33
2019-02-02T03:55:59.257Z,39.50
2019-02-02T03:58:27.819Z,39.80
2019-02-02T04:00:59.121Z,39.03
2019-02-02T04:03:27.668Z,39.30
2019-02-02T04:05:59.183Z,37.63
2019-02-02T04:08:27.746Z,36.73
2019-02-02T04:10:56.374Z,39.13
2019-02-02T04:13:28.985Z,35.43
2019-02-02T04:15:59.099Z,34.23
2019-02-02T04:18:29.172Z,38.63
2019-02-02T04:20:59.187Z,37.20
2019-02-02T04:23:30.658Z,36.73
2019-02-02T04:25:59.196Z,39.23
2019-02-02T04:28:28.654Z,33.93
2019-02-02T04:30:58.811Z,36.57
2019-02-02T04:33:29.980Z,37.57
2019-02-02T04:35:58.596Z,36.47
2019-02-02T04:38:28.662Z,37.10
2019-02-02T04:40:59.677Z,42.67
2019-02-02T04:43:31.078Z,36.17
2019-02-02T04:45:59.638Z,38.80
2019-02-02T04:48:28.194Z,40.30
2019-02-02T04:50:59.779Z,39.70
2019-02-02T04:53:28.368Z,39.27
2019-02-02T04:55:57.008Z,35.13
2019-02-02T04:58:25.550Z,39.73
2019-02-02T05:00:54.148Z,36.03
2019-02-02T05:03:22.700Z,36.33
2019-02-02T05:05:51.257Z,32.63
2019-02-02T05:08:19.828Z,35.53
2019-02-02T05:10:49.900Z,42.73
2019-02-02T05:13:21.251Z,36.57
2019-02-02T05:15:49.830Z,39.40
2019-02-02T05:18:21.080Z,40.33
2019-02-02T05:20:58.873Z,36.20
2019-02-02T05:23:30.183Z,37.60
2019-02-02T05:25:58.770Z,36.00
2019-02-02T05:28:28.795Z,36.10
2019-02-02T05:30:57.455Z,35.73
2019-02-02T05:33:31.997Z,35.13
2019-02-02T05:36:00.616Z,37.37
2019-02-02T05:38:31.881Z,34.83
2019-02-02T05:41:00.428Z,37.63
2019-02-02T05:43:28.960Z,42.80
2019-02-02T05:45:57.478Z,37.27
2019-02-02T05:48:28.747Z,35.73
2019-02-02T05:50:59.918Z,36.27
2019-02-02T05:53:30.909Z,41.07
2019-02-02T05:55:59.462Z,37.73
2019-02-02T05:58:28.027Z,33.77
2019-02-02T06:00:58.317Z,35.63
2019-02-02T06:03:29.521Z,33.83
2019-02-02T06:06:00.862Z,40.20
2019-02-02T06:08:36.628Z,38.77
2019-02-02T06:11:05.250Z,36.47
2019-02-02T06:13:38.221Z,33.83
2019-02-02T06:16:06.836Z,38.33
2019-02-02T06:18:35.391Z,35.17
2019-02-02T06:21:03.988Z,33.07
2019-02-02T06:23:37.947Z,37.17
2019-02-02T06:26:06.641Z,36.23
2019-02-02T06:28:35.186Z,34.03
2019-02-02T06:31:03.809Z,35.30
2019-02-02T06:33:32.361Z,35.70
2019-02-02T06:36:03.534Z,33.93
2019-02-02T06:38:31.133Z,35.60
2019-02-02T06:40:59.729Z,33.10
2019-02-02T06:43:30.363Z,35.47
2019-02-02T06:46:01.755Z,35.07
2019-02-02T06:48:30.292Z,40.80
2019-02-02T06:50:58.803Z,37.93
2019-02-02T06:53:27.351Z,38.17
2019-02-02T06:56:02.012Z,38.67
2019-02-02T06:58:30.599Z,33.57
2019-02-02T07:01:00.693Z,37.03
2019-02-02T07:03:32.227Z,38.10
2019-02-02T07:06:00.813Z,38.40
2019-02-02T07:08:32.015Z,37.57
2019-02-02T07:11:03.021Z,39.03
2019-02-02T07:13:31.610Z,39.23
2019-02-02T07:16:03.095Z,38.67
2019-02-02T07:18:31.649Z,39.47
2019-02-02T07:21:00.235Z,42.63
2019-02-02T07:23:31.474Z,35.70
2019-02-02T07:26:00.031Z,39.27
2019-02-02T07:28:28.602Z,43.83
2019-02-02T07:30:57.440Z,37.40
2019-02-02T07:33:31.113Z,42.40
2019-02-02T07:35:59.710Z,37.57
2019-02-02T07:38:32.570Z,38.80
2019-02-02T07:41:01.137Z,39.80
2019-02-02T07:43:29.806Z,38.40
2019-02-02T07:45:59.883Z,39.57
2019-02-02T07:48:28.419Z,44.83
2019-02-02T07:50:57.941Z,42.17
2019-02-02T07:53:26.568Z,44.10
2019-02-02T07:56:02.104Z,39.17
2019-02-02T07:58:33.094Z,39.77
2019-02-02T08:01:01.678Z,37.27
2019-02-02T08:03:30.220Z,42.87
2019-02-02T08:06:00.307Z,40.87
2019-02-02T08:08:28.914Z,42.73
2019-02-02T08:10:58.377Z,39.17
2019-02-02T08:13:26.983Z,38.10
2019-02-02T08:15:59.154Z,37.23
2019-02-02T08:18:34.306Z,40.37
2019-02-02T08:21:03.214Z,38.83
2019-02-02T08:23:31.698Z,39.73
2019-02-02T08:26:00.195Z,36.63
2019-02-02T08:28:28.744Z,40.47
2019-02-02T08:30:59.247Z,42.70
2019-02-02T08:33:30.830Z,38.50
2019-02-02T08:35:59.448Z,42.90
2019-02-02T08:38:28.068Z,39.23
2019-02-02T08:40:59.401Z,45.63
2019-02-02T08:43:27.974Z,38.70
2019-02-02T08:45:58.169Z,40.50
2019-02-02T08:48:31.588Z,36.03
2019-02-02T08:51:03.477Z,37.23
2019-02-02T08:53:32.237Z,42.37
2019-02-02T08:56:01.121Z,41.90
2019-02-02T08:58:29.666Z,40.27
2019-02-02T09:01:04.209Z,41.03
2019-02-02T09:03:28.445Z,37.70
2019-02-02T09:05:57.933Z,39.60
2019-02-02T09:08:29.380Z,38.97
2019-02-02T09:10:59.498Z,39.10
2019-02-02T09:13:28.046Z,39.73
2019-02-02T09:15:58.149Z,37.37
2019-02-02T09:18:26.831Z,43.23
2019-02-02T09:20:56.943Z,42.20
2019-02-02T09:23:27.129Z,38.80
2019-02-02T09:25:59.140Z,39.27
2019-02-02T09:28:29.618Z,42.70
2019-02-02T09:31:15.207Z,41.90
2019-02-02T09:33:41.352Z,40.73
2019-02-02T09:36:10.271Z,38.53
2019-02-02T09:38:40.473Z,41.97
2019-02-02T09:41:09.023Z,42.23
2019-02-02T09:43:39.606Z,38.63
2019-02-02T09:46:07.818Z,39.43
2019-02-02T09:48:39.076Z,41.37
2019-02-02T09:51:07.649Z,40.37
2019-02-02T09:53:36.231Z,39.37
2019-02-02T09:56:05.120Z,38.90
2019-02-02T09:58:33.702Z,44.07
2019-02-02T10:01:05.343Z,36.37
2019-02-02T10:03:38.296Z,37.20
2019-02-02T10:06:06.928Z,40.03
2019-02-02T10:08:35.670Z,36.90
2019-02-02T10:11:04.294Z,39.57
2019-02-02T10:13:33.049Z,39.10
2019-02-02T10:16:01.664Z,37.90
2019-02-02T10:18:30.272Z,39.23
2019-02-02T10:21:03.974Z,41.60
2019-02-02T10:23:29.066Z,41.97
2019-02-02T10:25:57.542Z,39.90
2019-02-02T10:28:36.055Z,40.20
2019-02-02T10:31:04.760Z,37.17
2019-02-02T10:33:33.346Z,37.90
2019-02-02T10:36:06.265Z,37.30
2019-02-02T10:38:34.811Z,39.87
2019-02-02T10:41:03.467Z,34.00
2019-02-02T10:43:32.020Z,41.30
2019-02-02T10:46:00.539Z,38.23
2019-02-02T10:48:38.043Z,38.70
2019-02-02T10:51:06.675Z,38.87
2019-02-02T10:53:40.898Z,52.07
2019-02-02T10:56:12.242Z,43.70
2019-02-02T10:58:41.194Z,47.17
2019-02-02T11:01:10.395Z,37.40
2019-02-02T11:03:40.505Z,37.73
2019-02-02T11:06:10.628Z,38.50
2019-02-02T11:08:40.697Z,38.83
2019-02-02T11:11:09.374Z,39.60
2019-02-02T11:13:39.687Z,42.47
2019-02-02T11:16:08.774Z,39.40
2019-02-02T11:18:37.538Z,40.93
2019-02-02T11:21:10.662Z,38.13
2019-02-02T11:23:44.227Z,39.57
2019-02-02T11:26:13.045Z,39.33
2019-02-02T11:28:54.206Z,38.67
2019-02-02T11:31:27.397Z,41.27
2019-02-02T11:33:58.683Z,38.77
2019-02-02T11:36:29.615Z,38.67
2019-02-02T11:39:18.400Z,40.77
2019-02-02T11:41:49.948Z,41.20
2019-02-02T11:44:20.071Z,37.50
2019-02-02T11:46:48.726Z,41.60
2019-02-02T11:49:17.303Z,45.17
2019-02-02T11:51:56.074Z,41.33
2019-02-02T11:54:37.527Z,43.27
2019-02-02T11:57:12.001Z,38.17
2019-02-02T11:59:40.873Z,38.30
2019-02-02T12:02:14.515Z,39.10
2019-02-02T12:04:39.777Z,47.67
2019-02-02T12:07:12.268Z,45.27
2019-02-02T12:09:40.790Z,39.30
2019-02-02T12:12:19.586Z,40.67
2019-02-02T12:14:51.583Z,42.30
2019-02-02T12:17:20.140Z,47.30
2019-02-02T12:19:48.705Z,42.93
2019-02-02T12:22:19.969Z,50.63
2019-02-02T12:24:48.522Z,50.53
2019-02-02T12:27:18.117Z,49.53
2019-02-02T12:29:49.482Z,49.37
2019-02-02T12:32:29.052Z,45.80
2019-02-02T12:35:05.599Z,47.57
2019-02-02T12:37:46.529Z,46.40
2019-02-02T12:40:18.602Z,48.03
2019-02-02T12:42:47.320Z,42.10
2019-02-02T12:45:33.511Z,44.67
2019-02-02T12:48:02.131Z,44.77
2019-02-02T12:50:30.633Z,44.37
2019-02-02T12:52:59.769Z,37.47
2019-02-02T12:55:29.860Z,42.33
2019-02-02T12:58:08.794Z,52.10
2019-02-02T13:00:38.038Z,49.20
2019-02-02T13:03:09.581Z,44.40
2019-02-02T13:06:08.885Z,34.33
2019-02-02T13:08:08.416Z,39.10
2019-02-02T13:10:39.905Z,38.40
2019-02-02T13:13:11.815Z,41.27
2019-02-02T13:15:40.385Z,40.43
2019-02-02T13:18:09.008Z,41.40
2019-02-02T13:20:37.569Z,41.57
2019-02-02T13:23:07.050Z,36.57
2019-02-02T13:25:38.366Z,40.73
2019-02-02T13:28:10.709Z,35.73
2019-02-02T13:30:39.320Z,35.03
2019-02-02T13:33:07.901Z,32.50
2019-02-02T13:35:39.549Z,32.73
2019-02-02T13:38:14.426Z,33.03
2019-02-02T13:40:43.077Z,31.83
2019-02-02T13:43:11.640Z,32.30
2019-02-02T13:45:40.203Z,30.33
2019-02-02T13:48:09.124Z,30.40
2019-02-02T13:50:37.681Z,32.73
2019-02-02T13:53:06.919Z,29.37
2019-02-02T13:55:35.649Z,32.83
2019-02-02T13:58:04.732Z,35.67
2019-02-02T14:00:37.193Z,36.13
2019-02-02T14:03:06.106Z,35.17
2019-02-02T14:05:34.831Z,38.03
2019-02-02T14:08:04.673Z,34.93
2019-02-02T14:10:34.792Z,32.57
2019-02-02T14:13:03.283Z,36.73
2019-02-02T14:15:32.065Z,31.47
2019-02-02T14:18:01.554Z,29.57
2019-02-02T14:20:30.311Z,29.03
2019-02-02T14:23:00.940Z,31.97
2019-02-02T14:25:31.875Z,27.77
2019-02-02T14:28:06.043Z,30.20
2019-02-02T14:30:37.651Z,26.20
2019-02-02T14:33:13.632Z,25.40
2019-02-02T14:35:40.863Z,25.97
2019-02-02T14:38:10.078Z,29.77
2019-02-02T14:40:39.503Z,30.13
2019-02-02T14:43:08.170Z,27.07
2019-02-02T14:45:43.555Z,29.33
2019-02-02T14:48:26.314Z,32.73
2019-02-02T14:50:51.332Z,26.90
2019-02-02T14:53:27.387Z,27.53
2019-02-02T14:56:10.855Z,28.93
2019-02-02T14:58:43.306Z,26.70
2019-02-02T15:01:16.960Z,24.77
2019-02-02T15:03:46.390Z,23.07
2019-02-02T15:06:19.613Z,27.97
2019-02-02T15:08:57.524Z,25.63
2019-02-02T15:11:30.034Z,25.20
2019-02-02T15:14:01.288Z,26.03
2019-02-02T15:16:29.809Z,28.30
2019-02-02T15:18:58.373Z,26.17
2019-02-02T15:21:31.345Z,26.87
2019-02-02T15:24:05.668Z,27.60
2019-02-02T15:26:33.033Z,30.17
2019-02-02T15:29:04.561Z,27.13
2019-02-02T15:31:37.318Z,28.67
2019-02-02T15:34:05.953Z,29.27
2019-02-02T15:36:34.531Z,28.23
2019-02-02T15:39:04.628Z,29.93
2019-02-02T15:41:39.574Z,27.40
2019-02-02T15:44:08.153Z,24.87
2019-02-02T15:46:48.472Z,25.80
2019-02-02T15:49:17.178Z,26.57
2019-02-02T15:52:00.850Z,28.33
2019-02-02T15:54:32.845Z,27.20
2019-02-02T16:00:00.767Z,29.03
2019-02-02T16:02:29.357Z,30.10
2019-02-02T16:05:04.534Z,34.73
2019-02-02T16:07:34.173Z,34.37
2019-02-02T16:10:02.911Z,36.50
2019-02-02T16:12:31.631Z,36.13
2019-02-02T16:15:00.366Z,34.57
2019-02-02T16:17:29.218Z,40.33
2019-02-02T16:19:57.807Z,34.87
2019-02-02T16:22:27.894Z,41.07
2019-02-02T16:24:59.146Z,41.00
2019-02-02T16:27:27.791Z,39.23
2019-02-02T16:29:57.249Z,40.30
2019-02-02T16:32:25.823Z,39.73
2019-02-02T16:34:58.688Z,38.33
2019-02-02T16:37:28.771Z,38.83
2019-02-02T16:39:57.365Z,37.43
2019-02-02T16:42:28.642Z,40.00
2019-02-02T16:44:58.771Z,38.03
2019-02-02T16:47:30.245Z,41.90
2019-02-02T16:49:58.763Z,43.53
2019-02-02T16:52:27.355Z,39.43
2019-02-02T16:54:58.575Z,36.70
2019-02-02T16:57:27.149Z,37.23
2019-02-02T16:59:57.249Z,42.73
2019-02-02T17:02:34.346Z,39.50
2019-02-02T17:05:03.034Z,46.87
2019-02-02T17:07:31.602Z,42.70
2019-02-02T17:10:00.426Z,42.73
2019-02-02T17:12:29.279Z,42.47
2019-02-02T17:15:00.842Z,41.17
2019-02-02T17:17:35.762Z,42.00
2019-02-02T17:20:11.438Z,39.33
2019-02-02T17:22:44.365Z,36.40
2019-02-02T17:25:15.829Z,38.10
2019-02-02T17:27:47.336Z,34.43
2019-02-02T17:30:23.957Z,34.30
2019-02-02T17:33:00.058Z,38.07
2019-02-02T17:35:28.641Z,38.90
2019-02-02T17:38:00.023Z,38.00
2019-02-02T17:40:30.023Z,32.63
2019-02-02T17:43:01.709Z,37.30
2019-02-02T17:45:30.319Z,32.83
2019-02-02T17:47:58.945Z,35.33
2019-02-02T17:50:30.853Z,34.30
2019-02-02T17:52:59.766Z,32.63
2019-02-02T17:55:31.347Z,34.77
2019-02-02T17:57:59.878Z,36.40
2019-02-02T18:00:35.424Z,35.97
2019-02-02T18:03:09.188Z,35.17
2019-02-02T18:05:39.494Z,36.67
2019-02-02T18:08:08.167Z,32.27
2019-02-02T18:10:36.806Z,37.70
2019-02-02T18:13:05.741Z,35.87
2019-02-02T18:15:34.282Z,34.87
2019-02-02T18:18:02.879Z,36.30
2019-02-02T18:20:31.453Z,36.07
2019-02-02T18:23:02.737Z,37.43
2019-02-02T18:25:31.407Z,36.20
2019-02-02T18:28:00.059Z,34.37
2019-02-02T18:30:31.784Z,34.67
2019-02-02T18:33:00.440Z,34.40
2019-02-02T18:35:31.503Z,37.43
2019-02-02T18:38:00.104Z,37.13
2019-02-02T18:40:47.148Z,40.57
2019-02-02T18:43:15.787Z,39.23
2019-02-02T18:45:44.343Z,41.63
2019-02-02T18:48:19.996Z,36.73
2019-02-02T18:50:50.608Z,47.07
2019-02-02T18:53:19.135Z,40.97
2019-02-02T18:55:50.860Z,40.33
2019-02-02T18:58:19.761Z,45.57
2019-02-02T19:00:48.435Z,41.43
2019-02-02T19:03:19.660Z,41.43
2019-02-02T19:05:48.210Z,41.80
2019-02-02T19:08:19.679Z,38.57
2019-02-02T19:10:48.352Z,36.70
2019-02-02T19:13:19.869Z,36.60
2019-02-02T19:15:51.115Z,41.83
2019-02-02T19:18:19.603Z,38.27
2019-02-02T19:20:52.328Z,38.37
2019-02-02T19:23:25.449Z,37.43
2019-02-02T19:25:53.483Z,38.63
2019-02-02T19:28:26.566Z,44.20
2019-02-02T19:30:54.352Z,40.30
2019-02-02T19:33:23.330Z,41.87
2019-02-02T19:35:57.369Z,39.87
2019-02-02T19:38:26.855Z,37.03
2019-02-02T19:40:55.433Z,39.60
2019-02-02T19:43:32.449Z,37.60
2019-02-02T19:46:01.056Z,39.33
2019-02-02T19:48:29.634Z,40.37
2019-02-02T19:50:59.843Z,38.37
2019-02-02T19:53:28.459Z,37.50
2019-02-02T19:55:57.014Z,40.10
2019-02-02T19:58:25.569Z,53.77
2019-02-02T20:00:56.933Z,53.70
2019-02-02T20:03:28.728Z,55.97
2019-02-02T20:05:58.129Z,44.50
2019-02-02T20:08:26.902Z,46.67
2019-02-02T20:10:58.200Z,48.63
2019-02-02T20:13:26.819Z,55.97
2019-02-02T20:15:59.669Z,41.63
2019-02-02T20:18:32.349Z,47.60
2019-02-02T20:21:00.934Z,43.13
2019-02-02T20:23:29.484Z,44.67
2019-02-02T20:25:58.070Z,49.77
2019-02-02T20:28:28.703Z,46.40
2019-02-02T20:30:58.991Z,46.33
2019-02-02T20:33:29.253Z,47.67
2019-02-02T20:36:00.554Z,46.53
2019-02-02T20:38:32.176Z,47.73
2019-02-02T20:41:00.826Z,49.00
2019-02-02T20:43:29.352Z,74.03
2019-02-02T20:46:01.968Z,59.67
2019-02-02T20:48:31.882Z,47.00
2019-02-02T20:51:01.142Z,54.50
2019-02-02T20:53:29.709Z,48.87
2019-02-02T20:55:58.258Z,55.53
2019-02-02T20:58:29.558Z,51.80
2019-02-02T21:01:02.460Z,64.43
2019-02-02T21:03:31.348Z,61.23
2019-02-02T21:06:00.192Z,50.73
2019-02-02T21:08:28.743Z,51.40
2019-02-02T21:10:57.712Z,52.23
2019-02-02T21:13:26.267Z,51.10
2019-02-02T21:15:56.850Z,56.30
2019-02-02T21:18:27.875Z,49.60
2019-02-02T21:20:59.250Z,52.63
2019-02-02T21:23:27.915Z,52.73
2019-02-02T21:25:59.418Z,50.37
2019-02-02T21:28:27.980Z,51.47
2019-02-02T21:30:59.483Z,51.67
2019-02-02T21:33:34.029Z,54.73
2019-02-02T21:36:04.273Z,50.77
2019-02-02T21:38:33.097Z,49.37
2019-02-02T21:41:03.681Z,48.23
2019-02-02T21:43:32.248Z,49.40
2019-02-02T21:46:00.884Z,51.70
2019-02-02T21:48:29.472Z,48.97
2019-02-02T21:50:58.035Z,50.30
2019-02-02T21:53:29.904Z,53.97
2019-02-02T21:56:02.785Z,46.93
2019-02-02T21:58:31.353Z,46.77
2019-02-02T22:01:00.664Z,45.67
2019-02-02T22:03:29.286Z,49.63
2019-02-02T22:06:00.585Z,53.63
2019-02-02T22:08:29.144Z,50.03
2019-02-02T22:11:01.045Z,47.53
2019-02-02T22:13:29.612Z,46.73
2019-02-02T22:15:58.267Z,47.20
2019-02-02T22:18:26.861Z,50.93
2019-02-02T22:20:55.638Z,48.57
2019-02-02T22:23:39.234Z,48.07
2019-02-02T22:26:08.137Z,45.50
2019-02-02T22:28:36.686Z,48.87
2019-02-02T22:31:06.904Z,43.50
2019-02-02T22:33:35.451Z,44.43
2019-02-02T22:36:04.112Z,42.60
2019-02-02T22:38:32.696Z,44.30
2019-02-02T22:41:01.221Z,50.50
2019-02-02T22:43:31.959Z,51.70
2019-02-02T22:46:00.513Z,49.67
2019-02-02T22:48:29.247Z,53.73
2019-02-02T22:53:58.027Z,48.27
2019-02-02T22:56:46.905Z,49.07
2019-02-02T22:59:24.155Z,48.13
2019-02-02T23:01:57.592Z,50.67
2019-02-02T23:04:29.339Z,47.63
2019-02-02T23:07:04.668Z,54.20
2019-02-02T23:09:57.187Z,47.57
2019-02-02T23:12:34.349Z,47.33
2019-02-02T23:15:17.550Z,49.20
2019-02-02T23:17:48.425Z,47.37
2019-02-02T23:20:17.565Z,47.90
2019-02-02T23:22:49.291Z,45.47
2019-02-02T23:25:28.798Z,51.87
2019-02-02T23:28:00.646Z,49.90
2019-02-02T23:30:29.221Z,47.30
2019-02-02T23:32:57.825Z,47.70
2019-02-02T23:35:26.366Z,50.40
2019-02-02T23:37:55.011Z,52.23
2019-02-02T23:40:23.634Z,48.90
2019-02-02T23:42:52.114Z,54.73
2019-02-02T23:45:20.672Z,46.87
2019-02-02T23:47:49.223Z,49.23
2019-02-02T23:50:17.943Z,48.87
2019-02-02T23:52:46.584Z,54.17
2019-02-02T23:55:15.136Z,48.73
2019-02-02T23:57:46.526Z,48.13
